Time;durP1;ratioP1;P1;durP2;ratioP2;P2;SDS_P1;SDS_P2;PMS_P1;PMS_P2;Temp;Humidity;BMP_temperature;BMP_pressure;BME280_temperature;BME280_humidity;BME280_pressure;Samples;Min_cycle;Max_cycle;Signal;HPM_P1;HPM_P2
2022/01/27 00:01:03;;;;;;;18.05;15.48;;;2.40;99.90;;;;;;5017255;28;20218;-75
2022/01/27 00:03:33;;;;;;;17.55;14.55;;;2.30;99.90;;;;;;5024664;28;20207;-75
2022/01/27 00:06:06;;;;;;;20.92;15.20;;;2.30;99.90;;;;;;5018165;28;20590;-75
2022/01/27 00:08:41;;;;;;;22.40;17.98;;;2.30;99.90;;;;;;5020953;28;20213;-75
2022/01/27 00:11:12;;;;;;;25.55;19.80;;;2.20;99.90;;;;;;5018706;28;20598;-74
2022/01/27 00:13:46;;;;;;;22.90;18.65;;;2.30;99.90;;;;;;5026308;28;20251;-75
2022/01/27 00:16:16;;;;;;;27.08;19.33;;;2.20;99.90;;;;;;5026229;28;20228;-74
2022/01/27 00:18:45;;;;;;;24.95;18.33;;;2.10;99.90;;;;;;5021497;28;20278;-75
2022/01/27 00:21:12;;;;;;;23.55;18.58;;;2.00;99.90;;;;;;5020782;28;20511;-75
2022/01/27 00:23:41;;;;;;;21.45;17.38;;;2.00;99.90;;;;;;5022699;28;20277;-75
2022/01/27 00:26:09;;;;;;;25.13;19.08;;;1.90;99.90;;;;;;5022307;28;21192;-76
2022/01/27 00:28:36;;;;;;;23.15;18.08;;;1.90;99.90;;;;;;5019908;28;20208;-75
2022/01/27 00:31:03;;;;;;;20.08;16.10;;;1.90;99.90;;;;;;5024554;28;20199;-73
2022/01/27 00:33:30;;;;;;;25.55;19.80;;;1.90;99.90;;;;;;5023723;28;20200;-75
2022/01/27 00:35:57;;;;;;;23.45;18.38;;;1.90;99.90;;;;;;5021414;28;20219;-74
2022/01/27 00:38:24;;;;;;;22.08;18.20;;;1.90;99.90;;;;;;5027580;28;20563;-74
2022/01/27 00:40:53;;;;;;;22.95;17.58;;;2.00;99.90;;;;;;5037624;28;20214;-74
2022/01/27 00:43:20;;;;;;;22.77;17.27;;;2.00;99.90;;;;;;5034793;28;20214;-74
2022/01/27 00:45:47;;;;;;;18.02;14.75;;;2.00;99.90;;;;;;5025292;28;20710;-75
2022/01/27 00:48:16;;;;;;;16.25;13.45;;;2.00;99.90;;;;;;5027974;28;20199;-74
2022/01/27 00:50:43;;;;;;;14.05;12.13;;;2.00;99.90;;;;;;5031538;28;20241;-75
2022/01/27 00:53:26;;;;;;;16.10;13.15;;;2.00;99.90;;;;;;5027525;28;20207;-74
2022/01/27 00:55:57;;;;;;;18.48;12.88;;;2.10;99.90;;;;;;5028624;28;20251;-75
2022/01/27 00:58:38;;;;;;;17.85;13.20;;;2.10;99.90;;;;;;5028949;28;20203;-75
2022/01/27 01:01:10;;;;;;;22.40;14.43;;;2.10;99.90;;;;;;5026893;28;20308;-74
2022/01/27 01:03:41;;;;;;;19.33;14.35;;;2.10;99.90;;;;;;5024163;28;20204;-74
2022/01/27 01:06:21;;;;;;;16.38;12.75;;;2.10;99.90;;;;;;5026408;28;20219;-75
2022/01/27 01:12:17;;;;;;;21.25;15.82;;;2.20;99.90;;;;;;5025378;28;20226;-75
2022/01/27 01:14:47;;;;;;;19.33;15.00;;;2.20;99.90;;;;;;5026361;28;20200;-75
2022/01/27 01:20:16;;;;;;;17.75;13.70;;;2.00;99.90;;;;;;5025775;28;20290;-75
2022/01/27 01:31:10;;;;;;;23.02;17.08;;;2.10;99.90;;;;;;5027589;28;20215;-73
2022/01/27 01:33:39;;;;;;;22.45;16.05;;;2.10;99.90;;;;;;5028753;28;20282;-74
2022/01/27 01:36:14;;;;;;;21.58;16.98;;;2.00;99.90;;;;;;5043825;28;20259;-75
2022/01/27 01:38:43;;;;;;;16.55;13.70;;;2.00;99.90;;;;;;5028634;28;20203;-74
2022/01/27 01:41:10;;;;;;;21.20;15.45;;;2.00;99.90;;;;;;5032930;28;20195;-74
2022/01/27 01:43:39;;;;;;;20.95;15.00;;;2.00;99.90;;;;;;5028108;28;20199;-74
2022/01/27 01:46:06;;;;;;;19.58;14.57;;;2.00;99.90;;;;;;5028402;28;20227;-75
2022/01/27 01:48:33;;;;;;;19.40;14.52;;;1.90;99.90;;;;;;5029217;28;20191;-75
2022/01/27 01:51:03;;;;;;;19.23;15.63;;;1.90;99.90;;;;;;5025259;28;20673;-74
2022/01/27 01:53:30;;;;;;;18.50;14.73;;;1.80;99.90;;;;;;5029000;28;20230;-74
2022/01/27 01:55:58;;;;;;;17.42;13.45;;;1.80;99.90;;;;;;5025403;28;20223;-75
2022/01/27 01:58:25;;;;;;;15.68;12.90;;;1.80;99.90;;;;;;5027977;28;20263;-75
2022/01/27 02:00:53;;;;;;;16.52;12.60;;;1.80;99.90;;;;;;5029899;28;20199;-74
2022/01/27 02:03:20;;;;;;;14.20;11.77;;;1.80;99.90;;;;;;5030516;28;20192;-75
2022/01/27 02:05:52;;;;;;;18.65;14.25;;;1.80;99.90;;;;;;5026212;28;20215;-74
2022/01/27 02:08:39;;;;;;;17.88;14.27;;;1.80;99.90;;;;;;5027161;28;20200;-75
2022/01/27 02:19:26;;;;;;;17.25;13.50;;;1.70;99.90;;;;;;5031074;28;20198;-75
2022/01/27 02:21:56;;;;;;;13.20;11.70;;;1.70;99.90;;;;;;5029885;28;20732;-74
2022/01/27 02:24:25;;;;;;;13.70;10.80;;;1.70;99.90;;;;;;5022865;28;20204;-75
2022/01/27 02:26:52;;;;;;;11.38;10.27;;;1.80;99.90;;;;;;5028541;28;20686;-75
2022/01/27 02:29:21;;;;;;;11.18;9.55;;;1.80;99.90;;;;;;5031008;28;20226;-74
2022/01/27 02:31:49;;;;;;;10.50;9.40;;;1.80;99.90;;;;;;5025838;28;20239;-74
2022/01/27 02:34:16;;;;;;;10.25;8.85;;;1.80;99.90;;;;;;5024929;28;20212;-74
2022/01/27 02:36:43;;;;;;;11.35;9.93;;;1.90;99.90;;;;;;5024957;28;20223;-74
2022/01/27 02:39:12;;;;;;;9.80;8.80;;;1.90;99.90;;;;;;5025330;28;20657;-74
2022/01/27 02:41:46;;;;;;;9.80;8.80;;;1.90;99.90;;;;;;5029584;28;20207;-74
2022/01/27 02:44:25;;;;;;;8.75;7.88;;;2.00;99.90;;;;;;5024486;28;20301;-74
2022/01/27 02:46:53;;;;;;;12.02;9.50;;;2.00;99.90;;;;;;5026466;28;20231;-75
2022/01/27 02:49:20;;;;;;;12.45;9.15;;;2.00;99.90;;;;;;5025176;28;20683;-74
2022/01/27 02:51:47;;;;;;;11.10;9.90;;;2.00;99.90;;;;;;5027680;28;20466;-73
2022/01/27 02:54:15;;;;;;;10.40;9.30;;;2.00;99.90;;;;;;5024658;28;20199;-74
2022/01/27 02:56:46;;;;;;;10.80;9.77;;;1.90;99.90;;;;;;5025439;28;20817;-74
2022/01/27 02:59:14;;;;;;;10.23;9.18;;;1.90;99.90;;;;;;5024520;28;20425;-74
2022/01/27 03:01:44;;;;;;;9.98;8.82;;;1.80;99.90;;;;;;5024394;28;20207;-74
2022/01/27 03:04:11;;;;;;;12.25;9.52;;;1.90;99.90;;;;;;5027603;28;20202;-75
2022/01/27 03:06:38;;;;;;;8.85;7.93;;;1.90;99.90;;;;;;5024189;28;20222;-74
2022/01/27 03:09:05;;;;;;;9.43;8.50;;;1.90;99.90;;;;;;5027183;28;20192;-75
2022/01/27 03:11:43;;;;;;;9.35;8.38;;;2.00;99.90;;;;;;5026631;28;20203;-74
2022/01/27 03:14:11;;;;;;;8.63;7.82;;;2.00;99.90;;;;;;5023319;28;20196;-74
2022/01/27 03:16:38;;;;;;;8.50;7.60;;;2.00;99.90;;;;;;5024994;28;20216;-75
2022/01/27 03:19:05;;;;;;;8.13;7.43;;;2.00;99.90;;;;;;5027401;28;20200;-74
2022/01/27 03:21:32;;;;;;;9.52;8.10;;;2.10;99.90;;;;;;5025948;28;20199;-74
2022/01/27 03:23:59;;;;;;;9.75;8.80;;;2.10;99.90;;;;;;5042382;28;20208;-75
2022/01/27 03:26:27;;;;;;;10.68;9.57;;;2.10;99.90;;;;;;5027331;28;20216;-75
2022/01/27 03:28:56;;;;;;;10.82;9.73;;;2.00;99.90;;;;;;5023727;28;20250;-75
2022/01/27 03:31:23;;;;;;;12.00;9.48;;;2.00;99.90;;;;;;5023712;28;20286;-74
2022/01/27 03:33:50;;;;;;;10.00;9.00;;;1.90;99.90;;;;;;5022051;28;20203;-75
2022/01/27 03:36:17;;;;;;;10.57;9.38;;;1.90;99.90;;;;;;5026348;28;20273;-74
2022/01/27 03:38:45;;;;;;;11.27;8.32;;;1.90;99.90;;;;;;5032514;28;20316;-74
2022/01/27 03:41:17;;;;;;;10.45;9.25;;;1.80;99.90;;;;;;5024073;28;20207;-75
2022/01/27 03:43:44;;;;;;;9.07;8.18;;;1.80;99.90;;;;;;5023702;28;20199;-74
2022/01/27 03:46:13;;;;;;;8.95;8.05;;;1.80;99.90;;;;;;5088332;22;20236;-92
2022/01/27 03:48:40;;;;;;;9.23;8.05;;;1.80;99.90;;;;;;5021058;28;20612;-92
2022/01/27 03:51:07;;;;;;;8.90;7.93;;;1.90;99.90;;;;;;5023748;28;20199;-91
2022/01/27 03:53:35;;;;;;;8.40;7.60;;;1.90;99.90;;;;;;5028850;28;20216;-92
2022/01/27 03:56:02;;;;;;;9.15;8.35;;;1.90;99.90;;;;;;5025049;28;20201;-90
2022/01/27 03:58:29;;;;;;;9.25;8.23;;;1.90;99.90;;;;;;5018958;28;20219;-91
2022/01/27 04:00:56;;;;;;;9.00;8.13;;;1.90;99.90;;;;;;5027975;28;20214;-90
2022/01/27 04:03:27;;;;;;;8.25;7.45;;;1.90;99.90;;;;;;5024146;28;20197;-91
2022/01/27 04:05:55;;;;;;;7.97;7.28;;;1.90;99.90;;;;;;5027315;28;20550;-90
2022/01/27 04:08:24;;;;;;;7.18;6.50;;;1.80;99.90;;;;;;5025021;28;20672;-91
2022/01/27 04:10:52;;;;;;;6.63;6.03;;;1.90;99.90;;;;;;5027768;28;20203;-91
2022/01/27 04:13:19;;;;;;;7.18;6.50;;;1.90;99.90;;;;;;5032902;28;20278;-90
2022/01/27 04:15:46;;;;;;;7.20;6.60;;;1.90;99.90;;;;;;5033399;28;20206;-92
2022/01/27 04:18:13;;;;;;;6.68;6.05;;;1.90;99.90;;;;;;5025785;28;20247;-92
2022/01/27 04:20:43;;;;;;;7.38;6.68;;;2.00;99.90;;;;;;5031139;28;20195;-91
2022/01/27 04:23:10;;;;;;;7.13;6.43;;;2.00;99.90;;;;;;5033451;28;20199;-90
2022/01/27 04:25:38;;;;;;;7.50;6.80;;;1.90;99.90;;;;;;5032501;28;20203;-90
2022/01/27 04:28:10;;;;;;;7.55;6.80;;;1.90;99.90;;;;;;5029753;28;20195;-91
2022/01/27 04:30:37;;;;;;;7.05;6.45;;;1.90;99.90;;;;;;5029785;28;20203;-91
2022/01/27 04:33:06;;;;;;;7.57;6.90;;;1.80;99.90;;;;;;5030680;28;20199;-89
2022/01/27 04:35:38;;;;;;;7.30;6.65;;;1.80;99.90;;;;;;5028234;28;20246;-90
2022/01/27 04:38:21;;;;;;;10.82;7.55;;;1.90;99.90;;;;;;5027501;28;20222;-90
2022/01/27 04:40:56;;;;;;;7.03;6.40;;;1.90;99.90;;;;;;5023474;28;20207;-90
2022/01/27 04:43:31;;;;;;;6.10;5.53;;;1.90;99.90;;;;;;5032637;28;20201;-90
2022/01/27 04:46:06;;;;;;;7.18;5.55;;;1.90;99.90;;;;;;5031375;28;20689;-93
2022/01/27 04:48:38;;;;;;;5.93;5.32;;;1.80;99.90;;;;;;5033446;28;20485;-91
2022/01/27 04:51:08;;;;;;;4.93;4.53;;;1.90;99.90;;;;;;5032757;28;20197;-91
2022/01/27 04:53:43;;;;;;;6.50;5.93;;;1.80;99.90;;;;;;5034315;28;20290;-90
2022/01/27 04:56:13;;;;;;;5.85;5.38;;;1.80;99.90;;;;;;5034927;28;20297;-92
2022/01/27 04:58:41;;;;;;;5.13;4.72;;;1.80;99.90;;;;;;5032527;28;20234;-91
2022/01/27 05:01:08;;;;;;;6.95;4.55;;;1.80;99.90;;;;;;5023894;28;20223;-92
2022/01/27 05:03:41;;;;;;;5.10;4.70;;;1.80;99.90;;;;;;5036164;28;20207;-92
2022/01/27 05:06:08;;;;;;;4.20;3.90;;;1.80;99.90;;;;;;5032614;28;20203;-91
2022/01/27 05:08:37;;;;;;;4.57;4.28;;;1.80;99.90;;;;;;5029170;28;20196;-91
2022/01/27 05:11:09;;;;;;;4.80;4.40;;;1.80;99.90;;;;;;5029281;28;20578;-91
2022/01/27 05:13:41;;;;;;;5.25;4.93;;;1.80;99.90;;;;;;5023970;28;20812;-93
2022/01/27 05:16:09;;;;;;;5.85;5.38;;;1.80;99.90;;;;;;5031877;28;20650;-90
2022/01/27 05:18:36;;;;;;;5.53;5.10;;;1.80;99.90;;;;;;5030923;28;20227;-93
2022/01/27 05:21:04;;;;;;;6.00;5.50;;;1.80;99.90;;;;;;5029225;28;20200;-90
2022/01/27 05:23:31;;;;;;;6.88;6.28;;;1.80;99.90;;;;;;5027981;28;20288;-91
2022/01/27 05:26:00;;;;;;;6.65;5.97;;;1.80;99.90;;;;;;5029516;28;20200;-89
2022/01/27 05:28:27;;;;;;;6.70;6.10;;;1.80;99.90;;;;;;5034285;28;20196;-90
2022/01/27 05:30:54;;;;;;;6.43;5.93;;;1.80;99.90;;;;;;5024356;28;20196;-92
2022/01/27 05:33:21;;;;;;;7.22;6.57;;;1.80;99.90;;;;;;5030070;28;20203;-90
2022/01/27 05:35:49;;;;;;;7.93;6.80;;;1.80;99.90;;;;;;5033018;28;20203;-91
2022/01/27 05:38:17;;;;;;;6.45;5.88;;;1.70;99.90;;;;;;5034016;28;20223;-90
2022/01/27 05:40:45;;;;;;;5.82;5.32;;;1.70;99.90;;;;;;5029148;28;20203;-90
2022/01/27 05:43:14;;;;;;;5.70;5.15;;;1.60;99.90;;;;;;5030862;28;20259;-89
2022/01/27 05:45:41;;;;;;;5.93;4.82;;;1.60;99.90;;;;;;5027851;28;20207;-88
2022/01/27 05:48:08;;;;;;;5.50;5.05;;;1.70;99.90;;;;;;5027918;28;20555;-93
2022/01/27 05:50:36;;;;;;;5.63;5.18;;;1.70;99.90;;;;;;5029118;28;20276;-91
2022/01/27 05:53:04;;;;;;;6.68;6.18;;;1.70;99.90;;;;;;5027917;28;20219;-92
2022/01/27 05:55:31;;;;;;;6.68;6.10;;;1.80;99.90;;;;;;5031449;28;20659;-91
2022/01/27 05:57:58;;;;;;;6.70;6.10;;;1.80;99.90;;;;;;5037489;28;20207;-90
2022/01/27 06:00:28;;;;;;;6.50;6.00;;;1.80;99.90;;;;;;5039404;28;20931;-91
2022/01/27 06:02:55;;;;;;;5.65;5.25;;;1.70;99.90;;;;;;5021785;28;20234;-90
2022/01/27 06:05:23;;;;;;;5.45;5.03;;;1.70;99.90;;;;;;5028258;28;20226;-91
2022/01/27 06:07:50;;;;;;;5.35;4.95;;;1.70;99.90;;;;;;5031279;28;20681;-90
2022/01/27 06:10:17;;;;;;;4.90;4.57;;;1.70;99.90;;;;;;5029340;28;20207;-90
2022/01/27 06:12:49;;;;;;;4.35;4.05;;;1.80;99.90;;;;;;5033822;28;20223;-92
2022/01/27 06:15:16;;;;;;;4.07;3.78;;;1.90;99.90;;;;;;5027994;28;20689;-90
2022/01/27 06:17:45;;;;;;;4.35;4.05;;;1.90;99.90;;;;;;5028056;28;20231;-91
2022/01/27 06:20:13;;;;;;;4.78;4.38;;;1.90;99.90;;;;;;5026485;28;20219;-93
2022/01/27 06:22:40;;;;;;;4.38;4.07;;;1.90;99.90;;;;;;5031550;28;20665;-91
2022/01/27 06:25:09;;;;;;;4.80;4.50;;;1.80;99.90;;;;;;5033920;28;20600;-91
2022/01/27 06:27:37;;;;;;;4.47;4.22;;;1.90;99.90;;;;;;5033600;28;20203;-90
2022/01/27 06:30:07;;;;;;;4.70;4.35;;;2.00;99.90;;;;;;5030306;28;20210;-92
2022/01/27 06:32:34;;;;;;;4.40;4.10;;;2.00;99.90;;;;;;5026064;28;20207;-91
2022/01/27 06:35:04;;;;;;;4.28;3.97;;;2.00;99.90;;;;;;5027941;28;20188;-91
2022/01/27 06:37:31;;;;;;;3.80;3.50;;;2.00;99.90;;;;;;5035503;28;20281;-89
2022/01/27 06:39:59;;;;;;;4.22;3.83;;;2.00;99.90;;;;;;5034233;28;20646;-91
2022/01/27 06:42:26;;;;;;;4.18;3.88;;;2.00;99.90;;;;;;5029196;28;20281;-91
2022/01/27 06:44:54;;;;;;;4.13;3.83;;;1.90;99.90;;;;;;5031867;28;20196;-92
2022/01/27 06:47:21;;;;;;;3.92;3.70;;;1.90;99.90;;;;;;5030163;28;20223;-91
2022/01/27 06:49:48;;;;;;;4.03;3.72;;;2.00;99.90;;;;;;5026506;28;20207;-90
2022/01/27 06:52:19;;;;;;;4.35;4.05;;;2.00;99.90;;;;;;5033384;28;20207;-92
2022/01/27 06:54:48;;;;;;;3.80;3.50;;;2.00;99.90;;;;;;5035737;28;20230;-91
2022/01/27 06:57:15;;;;;;;4.32;4.03;;;2.00;99.90;;;;;;5026086;28;20281;-91
2022/01/27 06:59:42;;;;;;;4.07;3.78;;;1.90;99.90;;;;;;5031102;28;20200;-91
2022/01/27 07:02:10;;;;;;;3.95;3.65;;;1.90;99.90;;;;;;5032041;28;20202;-92
2022/01/27 07:04:37;;;;;;;4.93;4.53;;;1.90;99.90;;;;;;5032030;28;20212;-91
2022/01/27 07:07:04;;;;;;;4.50;4.20;;;1.80;99.90;;;;;;5029038;28;20210;-91
2022/01/27 07:09:33;;;;;;;4.50;4.13;;;1.90;99.90;;;;;;5024428;28;20223;-90
2022/01/27 07:12:00;;;;;;;4.32;4.03;;;1.90;99.90;;;;;;5028046;28;20200;-90
2022/01/27 07:14:30;;;;;;;4.00;3.70;;;1.90;99.90;;;;;;5022466;28;20200;-90
2022/01/27 07:16:57;;;;;;;4.40;4.10;;;2.00;99.90;;;;;;5024035;28;20193;-91
2022/01/27 07:19:24;;;;;;;4.15;3.95;;;2.00;99.90;;;;;;5028573;28;20274;-90
2022/01/27 07:21:52;;;;;;;3.88;3.67;;;2.10;99.90;;;;;;5023430;28;20204;-88
2022/01/27 07:24:19;;;;;;;4.05;3.80;;;2.20;99.90;;;;;;5025717;28;20673;-91
2022/01/27 07:26:47;;;;;;;4.43;4.03;;;2.20;99.90;;;;;;5032152;28;20275;-91
2022/01/27 07:29:14;;;;;;;4.47;4.18;;;2.20;99.90;;;;;;5027074;28;20188;-93
2022/01/27 07:31:41;;;;;;;5.00;4.60;;;2.20;99.90;;;;;;5017394;28;20199;-91
2022/01/27 07:34:08;;;;;;;4.82;4.38;;;2.10;99.90;;;;;;5027914;28;20196;-90
2022/01/27 07:36:36;;;;;;;4.43;4.13;;;2.10;99.90;;;;;;5026713;28;20225;-91
2022/01/27 07:39:03;;;;;;;4.47;4.18;;;2.10;99.90;;;;;;5024328;28;20235;-91
2022/01/27 07:41:30;;;;;;;4.07;3.78;;;2.20;99.90;;;;;;5027569;28;20724;-90
2022/01/27 07:43:59;;;;;;;4.72;4.40;;;2.20;99.90;;;;;;5027755;28;20701;-90
2022/01/27 07:46:26;;;;;;;3.95;3.65;;;2.30;99.90;;;;;;5028587;28;20207;-93
2022/01/27 07:48:53;;;;;;;3.92;3.72;;;2.40;99.90;;;;;;5023509;28;20196;-92
2022/01/27 07:51:20;;;;;;;3.50;3.30;;;2.50;99.90;;;;;;5028986;28;20191;-91
2022/01/27 07:53:47;;;;;;;3.88;3.67;;;2.60;99.90;;;;;;5027479;28;20203;-92
2022/01/27 07:56:14;;;;;;;5.05;4.55;;;2.60;99.90;;;;;;5029189;28;20249;-90
2022/01/27 07:58:43;;;;;;;4.90;4.53;;;2.70;99.90;;;;;;5027715;28;20234;-91
2022/01/27 08:01:11;;;;;;;5.85;5.38;;;2.80;99.90;;;;;;5030413;28;20207;-91
2022/01/27 08:03:40;;;;;;;5.28;4.90;;;2.90;99.90;;;;;;5033448;28;20207;-92
2022/01/27 08:06:08;;;;;;;5.60;5.15;;;2.90;99.90;;;;;;5027681;28;20223;-90
2022/01/27 08:08:36;;;;;;;5.13;4.72;;;2.90;99.90;;;;;;5023035;28;20204;-89
2022/01/27 08:11:03;;;;;;;4.53;4.22;;;2.80;99.90;;;;;;5018714;28;20302;-92
2022/01/27 08:13:31;;;;;;;4.85;4.55;;;2.80;99.90;;;;;;5029374;28;20243;-92
2022/01/27 08:15:58;;;;;;;4.60;4.30;;;2.80;99.90;;;;;;5026828;28;20192;-90
2022/01/27 08:18:26;;;;;;;4.80;4.50;;;2.80;99.90;;;;;;5025274;28;20220;-90
2022/01/27 08:20:53;;;;;;;4.35;4.05;;;2.90;99.90;;;;;;5025796;28;20655;-90
2022/01/27 08:23:21;;;;;;;5.00;4.60;;;2.90;99.90;;;;;;5031162;28;20191;-90
2022/01/27 08:25:54;;;;;;;5.00;4.65;;;2.90;99.90;;;;;;5025190;28;20200;-91
2022/01/27 08:28:28;;;;;;;5.18;4.68;;;2.90;99.90;;;;;;5025497;28;20299;-90
2022/01/27 08:30:56;;;;;;;4.63;4.22;;;2.90;99.90;;;;;;5024155;28;20225;-92
2022/01/27 08:33:28;;;;;;;5.18;4.78;;;2.80;99.90;;;;;;5025527;28;20259;-91
2022/01/27 08:35:59;;;;;;;6.40;4.85;;;2.70;99.90;;;;;;5023698;28;20654;-88
2022/01/27 08:38:26;;;;;;;5.30;4.90;;;2.80;99.90;;;;;;5024429;28;20699;-91
2022/01/27 08:40:53;;;;;;;4.95;4.45;;;2.70;99.90;;;;;;5027126;28;20666;-91
2022/01/27 08:43:21;;;;;;;5.97;4.50;;;2.80;99.90;;;;;;5029911;28;20191;-89
2022/01/27 08:45:50;;;;;;;5.65;5.15;;;2.80;99.90;;;;;;5028091;28;20215;-92
2022/01/27 08:48:20;;;;;;;5.53;5.03;;;2.80;99.90;;;;;;5024931;28;20208;-92
2022/01/27 08:50:53;;;;;;;5.00;4.60;;;2.90;99.90;;;;;;5025451;28;20257;-92
2022/01/27 08:53:22;;;;;;;5.30;4.90;;;3.00;99.90;;;;;;5025435;28;20207;-92
2022/01/27 08:55:49;;;;;;;5.00;4.70;;;3.10;99.90;;;;;;5023821;28;20619;-91
2022/01/27 08:58:17;;;;;;;5.00;4.60;;;3.20;99.90;;;;;;5030123;28;20923;-90
2022/01/27 09:00:44;;;;;;;4.90;4.50;;;3.20;99.90;;;;;;5031565;28;20269;-91
2022/01/27 09:03:11;;;;;;;5.55;5.05;;;3.30;99.90;;;;;;5026121;28;20204;-90
2022/01/27 09:05:38;;;;;;;5.70;5.30;;;3.40;99.90;;;;;;5027052;28;20227;-91
2022/01/27 09:08:05;;;;;;;4.95;4.55;;;3.50;99.90;;;;;;5028999;28;20223;-93
2022/01/27 09:10:34;;;;;;;5.10;4.70;;;3.60;99.90;;;;;;5031140;28;20650;-89
2022/01/27 09:13:02;;;;;;;4.38;4.03;;;3.70;99.90;;;;;;5030182;28;20227;-91
2022/01/27 09:15:29;;;;;;;5.95;5.35;;;3.80;99.90;;;;;;5029568;28;20207;-90
2022/01/27 09:17:58;;;;;;;4.72;4.38;;;3.90;99.90;;;;;;5033463;28;20211;-92
2022/01/27 09:20:26;;;;;;;4.80;4.40;;;3.90;99.90;;;;;;5026174;28;20566;-91
2022/01/27 09:22:57;;;;;;;5.20;4.72;;;4.00;99.90;;;;;;5034358;28;20207;-89
2022/01/27 09:25:30;;;;;;;6.13;5.22;;;4.10;99.90;;;;;;5029260;28;20579;-90
2022/01/27 09:27:59;;;;;;;6.43;5.88;;;4.20;99.90;;;;;;5028193;28;20200;-90
2022/01/27 09:30:26;;;;;;;5.60;5.10;;;4.30;99.90;;;;;;5031631;28;20625;-89
2022/01/27 09:32:55;;;;;;;6.63;5.97;;;4.30;99.90;;;;;;5032071;28;20203;-92
2022/01/27 09:35:23;;;;;;;6.10;5.60;;;4.20;99.90;;;;;;5027591;28;20200;-92
2022/01/27 09:37:50;;;;;;;6.25;5.75;;;4.10;99.90;;;;;;5028748;28;20547;-89
2022/01/27 09:40:18;;;;;;;7.20;6.38;;;4.00;99.90;;;;;;5031211;28;20274;-90
2022/01/27 09:42:50;;;;;;;6.43;5.93;;;4.00;99.90;;;;;;5030880;28;20207;-90
2022/01/27 09:45:20;;;;;;;7.00;6.30;;;3.90;99.90;;;;;;5031786;28;20233;-89
2022/01/27 09:47:54;;;;;;;5.85;5.32;;;3.90;99.90;;;;;;5036609;28;20227;-91
2022/01/27 09:53:09;;;;;;;6.60;5.80;;;4.00;99.90;;;;;;5040085;28;20285;-92
2022/01/27 09:55:36;;;;;;;6.07;5.47;;;4.10;99.90;;;;;;5034883;28;20202;-91
2022/01/27 09:58:03;;;;;;;5.70;5.20;;;4.20;99.90;;;;;;5033021;28;20191;-90
2022/01/27 10:00:32;;;;;;;6.13;5.10;;;4.30;99.90;;;;;;5023728;28;20208;-91
2022/01/27 10:03:04;;;;;;;5.43;4.88;;;4.30;99.90;;;;;;5024596;28;20223;-88
2022/01/27 10:05:32;;;;;;;4.70;4.30;;;4.50;99.90;;;;;;5029847;28;20208;-90
2022/01/27 10:08:05;;;;;;;4.72;4.30;;;4.60;99.90;;;;;;5027544;28;20727;-90
2022/01/27 10:10:38;;;;;;;4.93;4.40;;;4.70;99.90;;;;;;5030509;28;20254;-89
2022/01/27 10:13:08;;;;;;;4.65;4.20;;;4.90;99.90;;;;;;5030679;28;20195;-89
2022/01/27 10:18:26;;;;;;;4.32;4.00;;;5.00;99.90;;;;;;5027804;28;20223;-93
2022/01/27 10:21:00;;;;;;;4.38;4.05;;;5.10;99.90;;;;;;5024462;28;20204;-90
2022/01/27 10:23:31;;;;;;;4.70;4.40;;;5.20;99.90;;;;;;5026470;28;20212;-91
2022/01/27 10:26:08;;;;;;;4.43;4.03;;;5.30;99.90;;;;;;5026259;28;20904;-91
2022/01/27 10:28:43;;;;;;;4.25;3.85;;;5.30;99.90;;;;;;5043917;28;20188;-91
2022/01/27 10:31:16;;;;;;;4.45;4.15;;;5.30;99.90;;;;;;5031827;28;20195;-92
2022/01/27 10:33:49;;;;;;;5.28;4.78;;;5.30;99.90;;;;;;5027862;28;20208;-91
2022/01/27 10:36:22;;;;;;;7.32;6.05;;;5.30;99.90;;;;;;5028468;28;20291;-91
2022/01/27 10:38:55;;;;;;;7.70;6.32;;;5.20;99.90;;;;;;5027882;28;20312;-90
2022/01/27 10:41:24;;;;;;;7.13;6.53;;;5.10;99.90;;;;;;5029204;28;20227;-90
2022/01/27 10:44:04;;;;;;;7.75;7.05;;;5.00;99.90;;;;;;5024572;28;20247;-88
2022/01/27 10:46:33;;;;;;;7.65;6.95;;;4.90;99.90;;;;;;5023656;28;20654;-90
2022/01/27 10:49:10;;;;;;;7.28;6.55;;;4.90;99.90;;;;;;5026624;28;20279;-89
2022/01/27 10:51:43;;;;;;;7.70;6.93;;;4.90;99.90;;;;;;5025192;28;20242;-91
2022/01/27 10:54:20;;;;;;;7.38;6.53;;;5.00;99.90;;;;;;5030240;28;20195;-89
2022/01/27 10:56:48;;;;;;;6.68;5.50;;;5.10;99.90;;;;;;5023667;28;20666;-91
2022/01/27 10:59:17;;;;;;;5.88;5.38;;;5.20;99.90;;;;;;5022092;28;20698;-90
2022/01/27 11:01:47;;;;;;;5.80;5.38;;;5.30;99.90;;;;;;5028116;28;20561;-88
2022/01/27 11:04:15;;;;;;;5.90;5.28;;;5.30;99.90;;;;;;5030328;28;20204;-89
2022/01/27 11:06:54;;;;;;;5.53;5.03;;;5.40;99.90;;;;;;5027095;28;20228;-90
2022/01/27 11:09:22;;;;;;;6.65;6.05;;;5.40;99.90;;;;;;5037033;28;20196;-89
2022/01/27 11:11:50;;;;;;;6.97;6.28;;;5.40;99.90;;;;;;5035334;28;20215;-91
2022/01/27 11:14:17;;;;;;;7.85;7.15;;;5.40;99.90;;;;;;5030342;28;20253;-88
2022/01/27 11:16:47;;;;;;;8.15;7.43;;;5.30;99.90;;;;;;5030106;28;20557;-90
2022/01/27 11:19:21;;;;;;;9.07;8.02;;;5.30;99.90;;;;;;5029930;28;20222;-89
2022/01/27 11:21:54;;;;;;;7.88;7.07;;;5.20;99.90;;;;;;5027642;28;20208;-89
2022/01/27 11:24:32;;;;;;;9.07;6.90;;;5.30;99.90;;;;;;5025815;28;20247;-89
2022/01/27 11:27:05;;;;;;;8.63;7.80;;;5.30;99.90;;;;;;5022994;28;20214;-90
2022/01/27 11:29:36;;;;;;;9.57;8.57;;;5.40;99.90;;;;;;5026907;28;20200;-91
2022/01/27 11:32:16;;;;;;;9.73;8.63;;;5.40;99.90;;;;;;5028482;28;20261;-88
2022/01/27 11:34:51;;;;;;;9.77;8.88;;;5.30;99.90;;;;;;5027139;28;20207;-89
2022/01/27 11:37:31;;;;;;;11.00;9.80;;;5.20;99.90;;;;;;5027183;28;20269;-91
2022/01/27 11:40:04;;;;;;;11.07;9.98;;;5.00;99.90;;;;;;5026441;28;20214;-89
2022/01/27 11:43:06;;;;;;;10.13;9.13;;;4.90;99.90;;;;;;5025626;28;20183;-91
2022/01/27 11:45:38;;;;;;;9.90;8.90;;;4.80;99.90;;;;;;5025539;28;20234;-89
2022/01/27 11:48:10;;;;;;;9.02;8.15;;;4.80;99.90;;;;;;5023443;28;20235;-89
2022/01/27 11:50:58;;;;;;;9.57;8.38;;;4.80;99.90;;;;;;5032697;28;20247;-88
2022/01/27 11:53:37;;;;;;;9.40;8.48;;;4.70;99.90;;;;;;5038259;28;20227;-90
2022/01/27 11:56:07;;;;;;;9.32;8.38;;;4.70;99.90;;;;;;5024677;28;20199;-88
2022/01/27 11:58:44;;;;;;;9.95;8.95;;;4.80;99.90;;;;;;5027293;28;20200;-88
2022/01/27 12:01:18;;;;;;;9.65;8.73;;;4.90;99.90;;;;;;5027304;28;20223;-87
2022/01/27 12:04:09;;;;;;;9.57;8.32;;;4.90;99.90;;;;;;5021801;28;20206;-89
2022/01/27 12:06:37;;;;;;;13.27;10.07;;;5.00;99.90;;;;;;5027863;28;20207;-91
2022/01/27 12:09:30;;;;;;;10.45;9.30;;;5.00;99.90;;;;;;5019206;28;20196;-91
2022/01/27 12:12:00;;;;;;;11.40;8.68;;;5.10;99.90;;;;;;5027029;28;20223;-92
2022/01/27 12:14:59;;;;;;;13.50;10.05;;;5.20;99.90;;;;;;5026397;28;20215;-91
2022/01/27 12:17:28;;;;;;;10.25;9.20;;;5.30;99.90;;;;;;5030936;28;20215;-90
2022/01/27 12:19:59;;;;;;;11.50;10.38;;;5.40;99.90;;;;;;5029562;28;20219;-91
2022/01/27 12:22:50;;;;;;;9.25;8.35;;;5.60;99.90;;;;;;5017535;28;20287;-92
2022/01/27 12:25:19;;;;;;;10.18;8.52;;;5.70;99.90;;;;;;5028041;28;20200;-88
2022/01/27 12:27:51;;;;;;;7.63;6.93;;;5.90;99.90;;;;;;5029623;28;20210;-91
2022/01/27 12:30:19;;;;;;;6.32;5.82;;;6.10;99.90;;;;;;5028948;28;20253;-92
2022/01/27 12:32:47;;;;;;;6.75;5.95;;;6.20;99.90;;;;;;5034376;28;20193;-89
2022/01/27 12:35:18;;;;;;;10.80;8.00;;;6.30;99.90;;;;;;5046357;28;20208;-91
2022/01/27 12:37:47;;;;;;;10.75;8.65;;;6.20;99.90;;;;;;5041892;28;20564;-91
2022/01/27 12:40:17;;;;;;;11.32;9.02;;;6.10;99.90;;;;;;5031357;28;20212;-91
2022/01/27 12:42:50;;;;;;;9.77;8.77;;;6.00;99.90;;;;;;5035935;28;20203;-90
2022/01/27 12:45:18;;;;;;;10.93;9.88;;;5.90;99.90;;;;;;5023664;28;20207;-90
2022/01/27 12:47:48;;;;;;;9.85;8.85;;;5.80;99.90;;;;;;5033320;28;20230;-90
2022/01/27 12:50:19;;;;;;;12.60;9.38;;;5.80;99.90;;;;;;5033400;28;20200;-90
2022/01/27 12:52:48;;;;;;;10.57;9.57;;;5.80;99.90;;;;;;5031316;28;20306;-90
2022/01/27 12:55:17;;;;;;;15.73;9.77;;;5.80;99.90;;;;;;5031532;28;20218;-89
2022/01/27 12:57:45;;;;;;;10.98;9.77;;;5.80;99.90;;;;;;5031087;28;20200;-91
2022/01/27 13:00:14;;;;;;;13.02;8.88;;;5.90;99.90;;;;;;5029745;28;20611;-89
2022/01/27 13:02:41;;;;;;;12.98;10.20;;;5.90;99.90;;;;;;5031755;28;20203;-90
2022/01/27 13:05:09;;;;;;;11.88;9.65;;;6.00;99.90;;;;;;5031900;28;20207;-92
2022/01/27 13:07:40;;;;;;;12.25;9.40;;;6.00;99.90;;;;;;5033633;28;20211;-91
2022/01/27 13:10:13;;;;;;;14.95;11.38;;;6.00;99.90;;;;;;5035223;28;20553;-92
2022/01/27 13:12:46;;;;;;;12.02;10.70;;;6.00;99.90;;;;;;5030625;28;20729;-90
2022/01/27 13:15:18;;;;;;;12.90;10.38;;;6.00;99.90;;;;;;5034877;28;20219;-89
2022/01/27 13:17:49;;;;;;;14.68;9.95;;;6.00;99.90;;;;;;5039382;28;20195;-90
2022/01/27 13:20:24;;;;;;;12.82;9.75;;;6.20;99.90;;;;;;5028148;28;20215;-90
2022/01/27 13:23:03;;;;;;;11.32;8.63;;;6.30;99.90;;;;;;5039004;28;20850;-90
2022/01/27 13:25:42;;;;;;;11.18;9.57;;;6.50;99.90;;;;;;5047755;28;20202;-90
2022/01/27 13:28:14;;;;;;;10.90;9.05;;;6.60;99.90;;;;;;5040008;28;20214;-89
2022/01/27 13:30:45;;;;;;;9.88;8.32;;;6.70;99.90;;;;;;5043590;28;20199;-90
2022/01/27 13:33:15;;;;;;;12.23;10.13;;;6.90;99.90;;;;;;5046258;28;20188;-90
2022/01/27 13:35:44;;;;;;;11.30;10.20;;;6.90;99.90;;;;;;5041595;28;20204;-90